Time;durP1;ratioP1;P1;durP2;ratioP2;P2;SDS_P1;SDS_P2;PMS_P1;PMS_P2;Temp;Humidity;BMP_temperature;BMP_pressure;BME280_temperature;BME280_humidity;BME280_pressure;Samples;Min_cycle;Max_cycle;Signal;HPM_P1;HPM_P2
2024/01/17 00:00:52;;;;;;;34.05;17.67;;;-1.70;78.30;;;;;;5022892;28;20456;-61
2024/01/17 00:03:17;;;;;;;35.70;17.65;;;-1.70;78.40;;;;;;5020942;28;20058;-62
2024/01/17 00:05:43;;;;;;;38.95;19.30;;;-1.60;78.40;;;;;;5028280;28;20493;-62
2024/01/17 00:08:09;;;;;;;35.42;18.45;;;-1.60;78.50;;;;;;5025362;28;20030;-61
2024/01/17 00:10:35;;;;;;;34.58;17.05;;;-1.60;78.40;;;;;;5030520;28;20034;-61
2024/01/17 00:13:01;;;;;;;32.78;16.73;;;-1.50;78.50;;;;;;5027098;28;20120;-61
2024/01/17 00:15:27;;;;;;;35.13;16.88;;;-1.50;78.40;;;;;;5026063;28;20512;-61
2024/01/17 00:17:53;;;;;;;33.75;16.80;;;-1.50;78.40;;;;;;5021047;28;20030;-61
2024/01/17 00:20:18;;;;;;;37.25;16.85;;;-1.40;78.40;;;;;;5023658;28;20030;-62
2024/01/17 00:22:44;;;;;;;35.05;18.17;;;-1.30;78.40;;;;;;5027818;28;20036;-62
2024/01/17 00:25:10;;;;;;;31.27;16.02;;;-1.30;78.50;;;;;;5027709;28;20071;-62
2024/01/17 00:27:36;;;;;;;33.85;17.35;;;-1.30;78.50;;;;;;5025757;28;20038;-61
2024/01/17 00:30:03;;;;;;;30.58;16.67;;;-1.30;78.50;;;;;;5033778;28;20037;-60
2024/01/17 00:32:31;;;;;;;34.45;17.70;;;-1.20;78.50;;;;;;5027025;28;20078;-61
2024/01/17 00:34:57;;;;;;;35.03;17.55;;;-1.20;78.50;;;;;;5024348;28;20500;-61
2024/01/17 00:37:22;;;;;;;33.88;17.08;;;-1.20;78.50;;;;;;5031214;28;20112;-61
2024/01/17 00:39:48;;;;;;;33.90;16.85;;;-1.10;78.50;;;;;;5028551;28;20417;-60
2024/01/17 00:42:14;;;;;;;29.92;16.55;;;-1.10;78.40;;;;;;5028190;28;20029;-61
2024/01/17 00:44:41;;;;;;;34.67;17.98;;;-1.10;78.40;;;;;;5020020;28;20583;-62
2024/01/17 00:47:07;;;;;;;31.10;16.90;;;-1.10;78.40;;;;;;5025050;28;20041;-61
2024/01/17 00:49:33;;;;;;;38.20;17.48;;;-1.00;79.30;;;;;;5024830;28;20025;-61
2024/01/17 00:51:58;;;;;;;36.88;18.65;;;-1.00;78.50;;;;;;5023649;28;20047;-62
2024/01/17 00:54:24;;;;;;;31.23;17.63;;;-1.00;78.40;;;;;;5019002;28;20034;-61
2024/01/17 00:56:49;;;;;;;37.15;17.52;;;-1.00;78.50;;;;;;5032569;28;20072;-60
2024/01/17 00:59:15;;;;;;;35.20;18.02;;;-1.00;78.50;;;;;;5024026;28;20030;-62
2024/01/17 01:01:40;;;;;;;37.17;17.27;;;-0.90;78.50;;;;;;5028313;28;20042;-62
2024/01/17 01:04:09;;;;;;;32.67;16.42;;;-0.90;78.60;;;;;;5030043;28;20067;-62
2024/01/17 01:06:35;;;;;;;33.92;17.58;;;-0.90;78.70;;;;;;5025457;28;20041;-62
2024/01/17 01:09:00;;;;;;;36.53;17.88;;;-0.90;78.80;;;;;;5024862;28;20033;-62
2024/01/17 01:11:30;;;;;;;38.58;18.80;;;-0.90;78.80;;;;;;5028225;28;20337;-62
2024/01/17 01:13:56;;;;;;;32.50;17.27;;;-0.90;79.00;;;;;;5024885;28;20413;-62
2024/01/17 01:16:21;;;;;;;34.88;17.52;;;-0.90;79.00;;;;;;5027265;28;20045;-62
2024/01/17 01:18:47;;;;;;;34.90;17.45;;;-0.90;79.20;;;;;;5036024;28;20038;-61
2024/01/17 01:21:14;;;;;;;30.60;16.95;;;-0.90;79.30;;;;;;5033918;28;20036;-62
2024/01/17 01:23:39;;;;;;;32.08;17.33;;;-0.80;79.50;;;;;;5022459;28;20414;-62
2024/01/17 01:26:05;;;;;;;33.70;17.23;;;-0.80;79.60;;;;;;5028675;28;20033;-61
2024/01/17 01:28:30;;;;;;;35.03;17.83;;;-0.80;80.60;;;;;;5025009;28;20040;-60
2024/01/17 01:30:56;;;;;;;34.10;16.77;;;-0.80;79.70;;;;;;5024685;28;20038;-62
2024/01/17 01:33:22;;;;;;;31.13;15.65;;;-0.80;79.70;;;;;;5031349;28;20029;-61
2024/01/17 01:35:48;;;;;;;33.45;16.52;;;-0.90;79.80;;;;;;5028917;28;20021;-62
2024/01/17 01:38:14;;;;;;;29.10;14.93;;;-0.90;80.00;;;;;;5027798;28;20026;-61
2024/01/17 01:40:40;;;;;;;31.13;15.10;;;-0.90;80.00;;;;;;5021530;28;20128;-62
2024/01/17 01:43:19;;;;;;;28.10;14.18;;;-0.90;80.00;;;;;;5026260;28;20117;-60
2024/01/17 01:46:08;;;;;;;27.95;14.75;;;-0.80;80.40;;;;;;5031969;28;20134;-60
2024/01/17 01:48:34;;;;;;;29.65;15.25;;;-0.80;80.40;;;;;;5026477;28;20066;-62
2024/01/17 01:51:00;;;;;;;29.70;15.75;;;-0.80;80.20;;;;;;5025841;28;20132;-62
2024/01/17 01:53:28;;;;;;;29.13;14.75;;;-0.80;80.20;;;;;;5026791;28;20465;-61
2024/01/17 01:55:54;;;;;;;25.70;14.68;;;-0.80;80.30;;;;;;5026521;28;20111;-62
2024/01/17 01:58:22;;;;;;;25.88;14.35;;;-0.80;80.20;;;;;;5025652;28;20061;-59
2024/01/17 02:00:48;;;;;;;23.52;13.00;;;-0.80;80.40;;;;;;5026889;28;20042;-62
2024/01/17 02:03:15;;;;;;;23.02;12.55;;;-0.90;80.20;;;;;;5027082;28;20120;-61
2024/01/17 02:05:42;;;;;;;25.27;13.30;;;-0.90;80.30;;;;;;5030418;28;20040;-60
2024/01/17 02:08:08;;;;;;;23.63;13.65;;;-0.90;80.50;;;;;;5030465;28;20058;-62
2024/01/17 02:10:35;;;;;;;21.65;12.15;;;-0.90;80.60;;;;;;5031646;28;20523;-62
2024/01/17 02:13:02;;;;;;;23.73;12.82;;;-0.90;80.70;;;;;;5028233;28;20417;-62
2024/01/17 02:15:28;;;;;;;23.08;12.77;;;-0.90;80.90;;;;;;5029507;28;20088;-62
2024/01/17 02:17:54;;;;;;;23.73;12.75;;;-0.90;80.90;;;;;;5033002;28;20021;-61
2024/01/17 02:20:20;;;;;;;22.55;13.38;;;-0.90;80.90;;;;;;5029364;28;20041;-62
2024/01/17 02:22:45;;;;;;;24.80;13.32;;;-0.90;81.00;;;;;;5027040;28;20468;-61
2024/01/17 02:25:11;;;;;;;23.33;13.27;;;-0.80;81.10;;;;;;5025074;28;20045;-61
2024/01/17 02:27:37;;;;;;;24.83;14.77;;;-0.80;81.20;;;;;;5025966;28;20030;-61
2024/01/17 02:30:03;;;;;;;26.30;14.73;;;-0.80;81.20;;;;;;5035509;28;20026;-62
2024/01/17 02:32:29;;;;;;;23.98;14.48;;;-0.70;81.10;;;;;;5027190;28;20029;-62
2024/01/17 02:34:55;;;;;;;24.98;14.02;;;-0.70;81.10;;;;;;5028436;28;20029;-62
2024/01/17 02:37:21;;;;;;;26.60;14.40;;;-0.70;81.10;;;;;;5032777;28;20037;-60
2024/01/17 02:39:46;;;;;;;24.33;13.40;;;-0.70;82.00;;;;;;5034983;28;20079;-62
2024/01/17 02:42:12;;;;;;;24.23;14.07;;;-0.60;81.30;;;;;;5031730;28;20049;-62
2024/01/17 02:44:37;;;;;;;23.40;14.35;;;-0.60;81.20;;;;;;5032091;28;20515;-61
2024/01/17 02:47:03;;;;;;;25.20;14.40;;;-0.60;81.20;;;;;;5029265;28;20029;-61
2024/01/17 02:49:29;;;;;;;26.02;14.10;;;-0.60;81.10;;;;;;5029616;28;20054;-61
2024/01/17 02:51:55;;;;;;;23.10;14.30;;;-0.50;81.00;;;;;;5029993;28;20041;-61
2024/01/17 02:54:20;;;;;;;28.67;14.75;;;-0.50;80.90;;;;;;5024677;28;20038;-61
2024/01/17 02:56:46;;;;;;;25.38;13.77;;;-0.50;81.00;;;;;;5026784;28;20056;-62
2024/01/17 02:59:11;;;;;;;30.83;16.25;;;-0.50;81.10;;;;;;5031482;28;20031;-61
2024/01/17 03:01:37;;;;;;;28.15;16.15;;;-0.50;81.10;;;;;;5032995;28;20042;-62
2024/01/17 03:04:02;;;;;;;24.05;14.65;;;-0.50;81.10;;;;;;5025767;28;20038;-62
2024/01/17 03:06:28;;;;;;;25.90;14.88;;;-0.40;81.30;;;;;;5026400;28;20511;-61
2024/01/17 03:08:54;;;;;;;25.27;14.63;;;-0.40;81.30;;;;;;5031704;28;20045;-61
2024/01/17 03:11:19;;;;;;;29.95;15.45;;;-0.40;81.30;;;;;;5026991;28;20832;-61
2024/01/17 03:13:45;;;;;;;24.63;14.43;;;-0.40;81.30;;;;;;5025698;28;20037;-60
2024/01/17 03:16:10;;;;;;;25.08;14.85;;;-0.30;81.40;;;;;;5026092;28;20281;-61
2024/01/17 03:18:37;;;;;;;27.88;15.40;;;-0.30;81.40;;;;;;5025098;28;20029;-60
2024/01/17 03:21:06;;;;;;;25.75;14.82;;;-0.30;81.40;;;;;;5028020;28;20968;-60
2024/01/17 03:23:31;;;;;;;25.33;14.95;;;-0.20;82.20;;;;;;5028328;28;20037;-61
2024/01/17 03:25:57;;;;;;;24.40;14.57;;;-0.20;81.20;;;;;;5031966;28;20072;-62
2024/01/17 03:28:22;;;;;;;27.42;15.77;;;-0.20;81.10;;;;;;5030315;28;20034;-59
2024/01/17 03:30:48;;;;;;;28.33;15.40;;;-0.20;81.20;;;;;;5033478;28;20061;-58
2024/01/17 03:33:14;;;;;;;26.58;15.32;;;-0.20;81.30;;;;;;5028430;28;20036;-61
2024/01/17 03:35:39;;;;;;;28.45;14.90;;;-0.20;81.30;;;;;;5024021;28;20037;-60
2024/01/17 03:38:05;;;;;;;28.60;15.88;;;-0.20;81.30;;;;;;5027138;28;20041;-61
2024/01/17 03:40:31;;;;;;;28.77;16.27;;;-0.20;81.30;;;;;;5025797;28;20038;-62
2024/01/17 03:42:56;;;;;;;29.25;15.85;;;-0.10;81.40;;;;;;5026363;28;20116;-59
2024/01/17 03:45:22;;;;;;;27.05;15.93;;;-0.10;81.40;;;;;;5033120;28;20487;-62
2024/01/17 03:47:47;;;;;;;26.77;14.98;;;-0.10;81.40;;;;;;5030125;28;20025;-61
2024/01/17 03:50:13;;;;;;;27.10;15.25;;;-0.10;81.40;;;;;;5026325;28;20041;-61
2024/01/17 03:52:38;;;;;;;30.13;16.33;;;-0.10;81.40;;;;;;5026502;28;20030;-61
2024/01/17 03:55:05;;;;;;;26.85;15.77;;;-0.10;81.40;;;;;;5022548;28;20040;-62
2024/01/17 03:57:31;;;;;;;27.17;15.80;;;-0.10;81.60;;;;;;5023525;28;20042;-61
2024/01/17 03:59:57;;;;;;;24.65;15.10;;;-0.10;81.70;;;;;;5024293;28;20037;-61
2024/01/17 04:02:22;;;;;;;25.90;15.75;;;-0.10;81.70;;;;;;5030188;28;20111;-62
2024/01/17 04:04:48;;;;;;;25.15;14.98;;;-0.10;81.80;;;;;;5028461;28;20126;-62
2024/01/17 04:07:14;;;;;;;28.48;16.20;;;0.00;82.00;;;;;;5026064;28;20044;-61
2024/01/17 04:09:41;;;;;;;25.88;15.15;;;0.00;82.10;;;;;;5030670;28;20451;-60
2024/01/17 04:12:06;;;;;;;28.33;16.38;;;0.00;82.10;;;;;;5030926;28;20037;-61
2024/01/17 04:14:32;;;;;;;27.17;16.65;;;0.10;82.30;;;;;;5030307;28;20163;-62
2024/01/17 04:16:58;;;;;;;27.33;16.20;;;0.10;82.30;;;;;;5026822;28;20041;-61
2024/01/17 04:19:23;;;;;;;27.38;15.90;;;0.10;82.30;;;;;;5024670;28;20500;-60
2024/01/17 04:21:56;;;;;;;32.53;17.05;;;0.20;82.50;;;;;;5032242;28;20037;-61
2024/01/17 04:24:22;;;;;;;30.33;15.77;;;0.20;82.70;;;;;;5027164;28;20029;-59
2024/01/17 04:26:48;;;;;;;28.40;16.55;;;0.20;82.70;;;;;;5031698;28;20029;-62
2024/01/17 04:29:14;;;;;;;30.63;17.17;;;0.20;82.80;;;;;;5029389;28;20115;-62
2024/01/17 04:31:39;;;;;;;28.65;17.05;;;0.30;83.00;;;;;;5025946;28;20056;-62
2024/01/17 04:34:05;;;;;;;27.83;16.38;;;0.30;83.20;;;;;;5033751;28;20037;-59
2024/01/17 04:36:30;;;;;;;29.45;17.15;;;0.30;83.20;;;;;;5032301;28;20535;-62
2024/01/17 04:38:57;;;;;;;25.73;15.82;;;0.40;83.30;;;;;;5028258;28;20040;-62
2024/01/17 04:41:22;;;;;;;28.83;16.25;;;0.40;83.40;;;;;;5026956;28;20406;-62
2024/01/17 04:43:48;;;;;;;30.90;16.58;;;0.40;83.40;;;;;;5024852;28;20096;-59
2024/01/17 04:46:15;;;;;;;26.50;15.13;;;0.50;83.50;;;;;;5024352;28;20386;-62
2024/01/17 04:48:42;;;;;;;25.88;15.15;;;0.50;83.40;;;;;;5020553;28;20044;-60
2024/01/17 04:51:09;;;;;;;28.52;16.35;;;0.50;83.50;;;;;;5024988;28;20954;-60
2024/01/17 04:53:37;;;;;;;27.25;14.73;;;0.50;83.70;;;;;;5030492;28;20087;-61
2024/01/17 04:56:05;;;;;;;30.95;17.02;;;0.50;83.70;;;;;;5026491;28;20038;-62
2024/01/17 04:58:33;;;;;;;26.02;15.93;;;0.50;83.90;;;;;;5027815;28;20061;-61
2024/01/17 05:00:59;;;;;;;29.45;16.85;;;0.60;84.00;;;;;;5022448;28;20060;-61
2024/01/17 05:03:26;;;;;;;28.05;17.38;;;0.60;84.00;;;;;;5020178;28;20765;-62
2024/01/17 05:05:51;;;;;;;31.45;18.05;;;0.60;84.20;;;;;;5031941;28;20038;-59
2024/01/17 05:08:17;;;;;;;36.60;20.73;;;0.70;84.30;;;;;;5025716;28;20029;-59
2024/01/17 05:10:44;;;;;;;32.35;19.58;;;0.70;84.50;;;;;;5030830;28;20120;-59
2024/01/17 05:13:10;;;;;;;33.60;19.65;;;0.70;84.60;;;;;;5030231;28;20036;-59
2024/01/17 05:15:36;;;;;;;38.95;20.67;;;0.80;84.60;;;;;;5025885;28;20041;-62
2024/01/17 05:18:02;;;;;;;36.00;20.85;;;0.80;84.40;;;;;;5026220;28;20258;-62
2024/01/17 05:20:27;;;;;;;37.22;21.20;;;0.90;84.60;;;;;;5017061;28;20060;-62
2024/01/17 05:22:53;;;;;;;39.10;21.10;;;0.90;84.60;;;;;;5026921;28;20037;-61
2024/01/17 05:25:18;;;;;;;37.20;21.08;;;0.90;84.60;;;;;;5022923;28;20387;-60
2024/01/17 05:27:51;;;;;;;35.53;21.00;;;1.00;84.60;;;;;;5022950;28;20344;-61
2024/01/17 05:30:21;;;;;;;36.47;20.40;;;1.00;84.60;;;;;;5026691;28;20029;-60
2024/01/17 05:32:47;;;;;;;33.95;20.05;;;1.00;84.70;;;;;;5022223;28;20115;-60
2024/01/17 05:35:16;;;;;;;37.95;21.95;;;1.00;84.60;;;;;;5025061;28;20056;-60
2024/01/17 05:37:45;;;;;;;39.67;21.55;;;1.10;84.80;;;;;;5028937;28;20386;-58
2024/01/17 05:40:12;;;;;;;35.50;20.75;;;1.10;85.00;;;;;;5024024;28;20041;-61
2024/01/17 05:42:39;;;;;;;35.47;21.08;;;1.20;85.00;;;;;;5030483;28;20119;-62
2024/01/17 05:45:07;;;;;;;33.58;19.85;;;1.20;85.00;;;;;;5026768;28;20082;-61
2024/01/17 05:47:36;;;;;;;34.97;19.83;;;1.20;85.10;;;;;;5026833;28;20045;-61
2024/01/17 05:50:09;;;;;;;31.95;19.33;;;1.30;85.10;;;;;;5023143;28;20037;-61
2024/01/17 05:52:41;;;;;;;31.65;19.02;;;1.30;85.10;;;;;;5021692;28;20030;-61
2024/01/17 05:55:08;;;;;;;37.38;20.48;;;1.30;85.30;;;;;;5021467;28;20498;-58
2024/01/17 05:57:34;;;;;;;33.35;19.45;;;1.40;85.30;;;;;;5027586;28;20095;-59
2024/01/17 05:59:59;;;;;;;32.45;19.83;;;1.40;85.30;;;;;;5023477;28;20025;-60
2024/01/17 06:02:25;;;;;;;35.97;20.48;;;1.40;85.50;;;;;;5031085;28;20080;-61
2024/01/17 06:04:50;;;;;;;34.00;19.60;;;1.50;85.60;;;;;;5027917;28;20094;-60
2024/01/17 06:07:16;;;;;;;36.60;21.58;;;1.50;85.70;;;;;;5024070;28;20030;-61
2024/01/17 06:09:43;;;;;;;35.80;21.10;;;1.50;85.80;;;;;;5029985;28;20064;-62
2024/01/17 06:12:10;;;;;;;37.60;21.63;;;1.50;85.80;;;;;;5025825;28;20047;-61
2024/01/17 06:14:36;;;;;;;35.63;20.65;;;1.50;86.00;;;;;;5026866;28;20413;-61
2024/01/17 06:17:01;;;;;;;34.13;20.38;;;1.60;86.10;;;;;;5029496;28;20033;-61
2024/01/17 06:19:27;;;;;;;35.70;20.65;;;1.60;86.20;;;;;;5023980;28;20042;-62
2024/01/17 06:21:52;;;;;;;35.28;20.58;;;1.60;86.30;;;;;;5030174;28;20052;-59
2024/01/17 06:24:18;;;;;;;37.45;20.85;;;1.60;86.40;;;;;;5022284;28;20524;-58
2024/01/17 06:26:43;;;;;;;40.08;20.73;;;1.60;86.50;;;;;;5027336;28;20137;-61
2024/01/17 06:29:10;;;;;;;44.92;25.05;;;1.60;86.60;;;;;;5026593;28;20033;-62
2024/01/17 06:31:36;;;;;;;36.78;21.85;;;1.70;86.70;;;;;;5025679;28;20069;-63
2024/01/17 06:34:01;;;;;;;38.13;22.35;;;1.70;86.70;;;;;;5024899;28;20076;-60
2024/01/17 06:36:27;;;;;;;38.72;21.67;;;1.70;86.80;;;;;;5021451;28;20038;-63
2024/01/17 06:38:52;;;;;;;33.40;19.45;;;1.70;86.70;;;;;;5030035;28;20044;-63
2024/01/17 06:41:18;;;;;;;35.90;20.58;;;1.70;86.80;;;;;;5026398;28;20041;-63
2024/01/17 06:43:45;;;;;;;32.75;18.98;;;1.70;86.90;;;;;;5024724;28;20115;-63
2024/01/17 06:46:10;;;;;;;31.02;19.25;;;1.70;86.90;;;;;;5022644;28;20042;-63
2024/01/17 06:48:36;;;;;;;32.30;19.02;;;1.80;87.00;;;;;;5024009;28;20554;-63
2024/01/17 06:51:02;;;;;;;35.13;21.20;;;1.80;87.00;;;;;;5033132;28;20029;-63
2024/01/17 06:53:30;;;;;;;32.05;18.23;;;1.90;87.00;;;;;;5027215;28;20025;-63
2024/01/17 06:55:56;;;;;;;31.75;19.58;;;1.90;86.90;;;;;;5025282;28;20448;-63
2024/01/17 06:58:22;;;;;;;31.27;19.13;;;1.90;86.80;;;;;;5029259;28;20493;-63
2024/01/17 07:03:23;;;;;;;30.77;19.20;;;2.00;86.80;;;;;;5640139;22;20061;-62
2024/01/17 07:05:48;;;;;;;33.17;19.08;;;1.90;86.70;;;;;;5040367;28;20036;-62
2024/01/17 07:08:14;;;;;;;30.05;19.05;;;2.10;86.60;;;;;;5048478;28;20454;-62
2024/01/17 07:10:40;;;;;;;32.80;19.98;;;2.10;86.60;;;;;;5047827;28;20037;-62
2024/01/17 07:13:07;;;;;;;32.65;18.80;;;2.20;86.70;;;;;;5049366;28;20032;-61
2024/01/17 07:15:32;;;;;;;34.33;20.67;;;2.20;86.60;;;;;;5046411;28;20088;-64
2024/01/17 07:17:58;;;;;;;33.42;19.67;;;2.20;86.50;;;;;;5041921;28;20037;-64
2024/01/17 07:20:24;;;;;;;33.60;20.08;;;2.30;86.50;;;;;;5042027;28;20295;-62
2024/01/17 07:22:50;;;;;;;32.78;20.80;;;2.30;86.40;;;;;;5050865;28;20688;-64
2024/01/17 07:25:15;;;;;;;35.33;20.92;;;2.30;86.40;;;;;;5050977;28;20037;-64
2024/01/17 07:27:46;;;;;;;39.47;22.15;;;2.30;86.40;;;;;;5050414;28;20116;-63
2024/01/17 07:30:12;;;;;;;36.50;23.90;;;2.40;86.40;;;;;;5051449;28;20167;-64
2024/01/17 07:32:39;;;;;;;40.65;25.00;;;2.40;86.30;;;;;;5050040;28;20148;-64
2024/01/17 07:35:05;;;;;;;37.70;22.27;;;2.40;86.30;;;;;;5051080;28;20033;-63
2024/01/17 07:37:33;;;;;;;35.92;21.55;;;2.50;86.30;;;;;;5051501;28;20496;-64
2024/01/17 07:39:59;;;;;;;40.10;23.13;;;2.50;86.30;;;;;;5050020;28;20025;-64
2024/01/17 07:42:25;;;;;;;38.30;23.02;;;2.50;86.30;;;;;;5045636;28;20044;-65
2024/01/17 07:44:51;;;;;;;36.80;21.33;;;2.50;86.30;;;;;;5050664;28;20111;-64
2024/01/17 07:47:16;;;;;;;34.55;20.70;;;2.60;86.50;;;;;;5045422;28;20178;-64
2024/01/17 07:49:43;;;;;;;38.15;22.02;;;2.60;86.40;;;;;;5051299;28;20040;-65
2024/01/17 07:52:09;;;;;;;36.03;21.77;;;2.60;86.40;;;;;;5049204;28;20120;-64
2024/01/17 07:54:36;;;;;;;36.22;22.10;;;2.60;86.40;;;;;;5051119;28;20171;-63
2024/01/17 07:57:04;;;;;;;36.67;21.92;;;2.60;86.50;;;;;;5050496;28;20033;-64
2024/01/17 07:59:30;;;;;;;36.65;22.77;;;2.70;86.60;;;;;;5048992;28;20511;-64
2024/01/17 08:01:57;;;;;;;41.38;22.48;;;2.70;86.60;;;;;;5051160;28;20098;-64
2024/01/17 08:04:22;;;;;;;37.17;22.40;;;2.70;86.80;;;;;;5049561;28;20044;-64
2024/01/17 08:06:48;;;;;;;34.97;21.42;;;2.70;86.90;;;;;;5050594;28;20400;-64
2024/01/17 08:09:20;;;;;;;32.40;20.25;;;2.70;86.90;;;;;;5047403;28;20045;-64
2024/01/17 08:11:54;;;;;;;37.30;22.10;;;2.70;87.00;;;;;;5042764;28;20048;-64
2024/01/17 08:14:20;;;;;;;36.53;22.60;;;2.60;87.30;;;;;;5045442;28;20029;-64
2024/01/17 08:16:47;;;;;;;35.25;21.75;;;2.60;87.00;;;;;;5039317;28;20436;-63
2024/01/17 08:19:14;;;;;;;38.17;22.35;;;2.60;87.20;;;;;;5038663;28;21812;-64
2024/01/17 08:21:49;;;;;;;39.13;21.75;;;2.60;87.30;;;;;;5045153;28;20115;-63
2024/01/17 08:24:15;;;;;;;32.78;21.08;;;2.50;87.30;;;;;;5039554;28;20389;-63
2024/01/17 08:26:41;;;;;;;35.17;20.83;;;2.50;87.30;;;;;;5041282;28;20040;-64
2024/01/17 08:29:07;;;;;;;37.33;22.35;;;2.50;87.30;;;;;;5037936;28;20028;-64
2024/01/17 08:31:33;;;;;;;35.00;22.40;;;2.50;87.50;;;;;;5037769;28;20416;-63
2024/01/17 08:34:00;;;;;;;34.45;21.90;;;2.50;87.70;;;;;;5043974;28;20033;-63
2024/01/17 08:36:33;;;;;;;35.97;22.17;;;2.60;87.90;;;;;;5036158;28;20045;-64
2024/01/17 08:38:58;;;;;;;34.83;21.63;;;2.60;88.10;;;;;;5037731;28;20040;-64
2024/01/17 08:41:24;;;;;;;31.50;20.05;;;2.60;87.90;;;;;;5037515;28;20041;-63
2024/01/17 08:43:49;;;;;;;32.83;19.75;;;2.60;87.90;;;;;;5038912;28;20095;-63
2024/01/17 08:46:15;;;;;;;31.15;20.17;;;2.70;87.90;;;;;;5040444;28;20112;-64
2024/01/17 08:48:41;;;;;;;33.60;21.63;;;2.70;87.90;;;;;;5039238;28;20567;-64
2024/01/17 08:51:08;;;;;;;34.40;20.95;;;2.70;88.00;;;;;;5041556;28;20043;-64
2024/01/17 08:53:34;;;;;;;34.63;20.83;;;2.80;88.00;;;;;;5037584;28;20093;-63
2024/01/17 08:56:02;;;;;;;32.80;21.30;;;2.80;88.00;;;;;;5038125;28;20503;-63
2024/01/17 08:58:28;;;;;;;33.90;21.50;;;2.80;87.90;;;;;;5037072;28;20037;-63
2024/01/17 09:00:53;;;;;;;34.67;21.58;;;2.90;87.70;;;;;;5039595;28;20036;-64
2024/01/17 09:03:20;;;;;;;34.38;21.92;;;2.90;87.60;;;;;;5039367;28;20025;-63
2024/01/17 09:05:46;;;;;;;30.60;19.83;;;2.90;87.60;;;;;;5046322;28;20037;-61
2024/01/17 09:08:11;;;;;;;37.17;20.40;;;2.90;87.40;;;;;;5046248;28;20030;-62
2024/01/17 09:10:37;;;;;;;32.00;20.85;;;2.90;87.20;;;;;;5042114;28;20038;-64
2024/01/17 09:13:03;;;;;;;30.10;19.10;;;2.90;87.40;;;;;;5040229;28;20506;-64
2024/01/17 09:15:28;;;;;;;30.10;18.88;;;2.90;87.70;;;;;;5043319;28;20083;-64
2024/01/17 09:17:54;;;;;;;29.52;19.17;;;2.90;87.90;;;;;;5048607;28;20044;-64
2024/01/17 09:20:20;;;;;;;29.83;18.77;;;2.90;88.00;;;;;;5042500;28;20064;-63
2024/01/17 09:22:46;;;;;;;28.13;18.45;;;2.90;88.00;;;;;;5042403;28;20123;-63
2024/01/17 09:25:12;;;;;;;32.42;20.27;;;3.00;88.10;;;;;;5048511;28;20049;-63
2024/01/17 09:27:38;;;;;;;29.30;18.45;;;3.00;88.10;;;;;;5042317;28;20044;-63
2024/01/17 09:30:04;;;;;;;32.70;20.40;;;3.00;88.10;;;;;;5039817;28;20064;-64
2024/01/17 09:32:29;;;;;;;31.88;20.00;;;3.00;88.10;;;;;;5039477;28;20029;-64
2024/01/17 09:34:55;;;;;;;29.73;19.98;;;3.10;88.20;;;;;;5042793;28;20036;-64
2024/01/17 09:37:21;;;;;;;30.70;20.05;;;3.10;88.40;;;;;;5041675;28;20503;-63
2024/01/17 09:39:50;;;;;;;27.77;18.08;;;3.10;88.50;;;;;;5044662;28;20040;-64
2024/01/17 09:42:16;;;;;;;29.10;19.42;;;3.10;88.60;;;;;;5042815;28;20029;-64
2024/01/17 09:44:43;;;;;;;37.83;22.88;;;3.10;88.70;;;;;;5040862;28;20041;-64
2024/01/17 09:47:13;;;;;;;33.33;21.67;;;3.20;88.90;;;;;;5039353;28;20508;-64
2024/01/17 09:49:39;;;;;;;34.92;22.05;;;3.20;88.90;;;;;;5043511;28;20036;-64
2024/01/17 09:52:06;;;;;;;31.95;20.02;;;3.20;88.80;;;;;;5039865;28;20127;-64
2024/01/17 09:54:41;;;;;;;29.38;19.05;;;3.20;88.70;;;;;;5041857;28;20219;-63
2024/01/17 09:57:09;;;;;;;27.33;17.77;;;3.30;89.00;;;;;;5041818;28;20048;-64
2024/01/17 09:59:44;;;;;;;26.48;18.48;;;3.30;88.60;;;;;;5042216;28;20034;-64
2024/01/17 10:02:12;;;;;;;30.50;19.20;;;3.30;88.80;;;;;;5040542;28;20033;-64
2024/01/17 10:04:40;;;;;;;27.20;18.58;;;3.30;88.60;;;;;;5039931;28;20037;-65
2024/01/17 10:07:06;;;;;;;28.27;19.02;;;3.40;88.60;;;;;;5040792;28;20059;-64
2024/01/17 10:09:33;;;;;;;26.75;17.65;;;3.40;88.70;;;;;;5042546;28;20127;-65
2024/01/17 10:11:59;;;;;;;24.98;17.85;;;3.40;88.60;;;;;;5041704;28;20491;-66
2024/01/17 10:14:25;;;;;;;27.80;18.30;;;3.40;88.60;;;;;;5043121;28;20040;-65
2024/01/17 10:16:51;;;;;;;31.75;21.13;;;3.50;88.60;;;;;;5042487;28;20037;-64
2024/01/17 10:19:17;;;;;;;46.72;23.92;;;3.50;88.60;;;;;;5037863;28;20087;-65
2024/01/17 10:21:43;;;;;;;40.05;22.95;;;3.50;88.60;;;;;;5043878;28;20033;-65
2024/01/17 10:24:10;;;;;;;40.72;23.13;;;3.50;88.50;;;;;;5038451;28;20031;-65
2024/01/17 10:26:40;;;;;;;30.15;20.90;;;3.50;88.50;;;;;;5041349;28;20486;-65
2024/01/17 10:29:05;;;;;;;30.00;19.67;;;3.40;88.60;;;;;;5042941;28;20090;-65
2024/01/17 10:31:31;;;;;;;30.80;20.20;;;3.40;88.60;;;;;;5038439;28;20516;-63
2024/01/17 10:33:57;;;;;;;33.65;20.38;;;3.40;88.70;;;;;;5041359;28;20040;-65
2024/01/17 10:36:23;;;;;;;28.40;19.98;;;3.40;89.60;;;;;;5038114;28;20465;-65
2024/01/17 10:38:51;;;;;;;30.60;20.52;;;3.40;88.80;;;;;;5042042;28;20086;-65
2024/01/17 10:41:17;;;;;;;29.02;20.05;;;3.30;88.80;;;;;;5039273;28;20037;-65
2024/01/17 10:43:55;;;;;;;28.30;19.30;;;3.40;88.90;;;;;;5039785;28;20029;-65
2024/01/17 10:46:22;;;;;;;31.60;19.77;;;3.40;89.40;;;;;;5040117;28;20068;-64
2024/01/17 10:48:48;;;;;;;29.13;20.30;;;3.40;89.10;;;;;;5045261;28;20041;-65
2024/01/17 10:51:21;;;;;;;33.17;20.88;;;3.40;89.20;;;;;;5038730;28;20085;-64
2024/01/17 10:53:49;;;;;;;32.38;21.58;;;3.40;89.50;;;;;;5041480;28;20096;-64
2024/01/17 10:56:18;;;;;;;35.50;22.48;;;3.40;89.30;;;;;;5037908;28;20095;-64
2024/01/17 10:58:50;;;;;;;40.30;24.95;;;3.40;89.30;;;;;;5040407;28;20034;-64
2024/01/17 11:01:28;;;;;;;36.80;23.50;;;3.50;89.40;;;;;;5040392;28;20034;-64
2024/01/17 11:03:55;;;;;;;36.85;23.25;;;3.50;89.40;;;;;;5038160;28;20108;-64
2024/01/17 11:06:22;;;;;;;33.58;22.33;;;3.50;89.30;;;;;;5042673;28;20522;-64
2024/01/17 11:08:49;;;;;;;34.35;22.33;;;3.50;89.40;;;;;;5042865;28;20052;-63
2024/01/17 11:11:16;;;;;;;40.70;24.98;;;3.50;89.30;;;;;;5037696;28;20037;-64
2024/01/17 11:13:44;;;;;;;35.05;23.85;;;3.50;89.20;;;;;;5040364;28;20038;-64
2024/01/17 11:16:13;;;;;;;37.40;24.85;;;3.60;89.30;;;;;;5040646;28;20531;-64
2024/01/17 11:18:42;;;;;;;36.65;23.52;;;3.50;89.20;;;;;;5042170;28;20195;-64
2024/01/17 11:21:08;;;;;;;36.03;24.08;;;3.50;89.30;;;;;;5038800;28;20029;-64
2024/01/17 11:23:43;;;;;;;34.63;22.85;;;3.50;89.30;;;;;;5043098;28;20079;-64
2024/01/17 11:26:33;;;;;;;34.67;23.50;;;3.50;89.60;;;;;;5038710;28;20412;-64
2024/01/17 11:29:33;;;;;;;35.22;23.70;;;3.50;90.10;;;;;;5037499;28;20500;-64
2024/01/17 11:32:18;;;;;;;34.95;22.60;;;3.50;90.10;;;;;;5034917;28;20465;-64
2024/01/17 11:34:47;;;;;;;31.85;21.15;;;3.40;90.00;;;;;;5038885;28;20043;-62
2024/01/17 11:37:27;;;;;;;32.58;21.88;;;3.40;89.90;;;;;;5038911;28;20050;-64
2024/01/17 11:39:56;;;;;;;31.75;21.92;;;3.40;90.20;;;;;;5042039;28;20454;-64
2024/01/17 11:42:22;;;;;;;34.70;22.67;;;3.40;90.40;;;;;;5035742;28;20493;-64
2024/01/17 11:44:50;;;;;;;36.35;23.67;;;3.40;90.10;;;;;;5043438;28;20442;-64
2024/01/17 11:47:19;;;;;;;39.30;25.88;;;3.50;90.10;;;;;;5040025;28;20041;-64
2024/01/17 11:49:46;;;;;;;34.40;23.98;;;3.50;90.20;;;;;;5045331;28;20468;-63
2024/01/17 11:52:34;;;;;;;35.30;23.27;;;3.50;90.10;;;;;;5037107;28;20272;-64
2024/01/17 11:55:01;;;;;;;33.85;22.23;;;3.50;90.30;;;;;;5042684;28;20039;-62
2024/01/17 11:57:28;;;;;;;31.42;21.60;;;3.60;90.20;;;;;;5042372;28;20041;-63
2024/01/17 12:00:03;;;;;;;32.65;21.70;;;3.60;90.50;;;;;;5036613;28;20029;-63
2024/01/17 12:02:38;;;;;;;29.50;20.17;;;3.60;90.30;;;;;;5037755;28;20512;-63
2024/01/17 12:05:09;;;;;;;32.20;20.85;;;3.60;90.20;;;;;;5036501;28;20487;-63
2024/01/17 12:07:42;;;;;;;31.20;20.10;;;3.70;90.10;;;;;;5039732;28;20041;-61
2024/01/17 12:10:10;;;;;;;31.55;21.27;;;3.70;90.10;;;;;;5038752;28;20352;-63
2024/01/17 12:12:37;;;;;;;31.95;21.08;;;3.80;90.10;;;;;;5038347;28;20032;-63
2024/01/17 12:15:05;;;;;;;30.63;20.60;;;3.80;90.10;;;;;;5036530;28;20048;-62
2024/01/17 12:17:32;;;;;;;28.00;20.27;;;3.90;90.10;;;;;;5038317;28;20034;-62
2024/01/17 12:19:59;;;;;;;34.33;23.13;;;3.90;90.00;;;;;;5036187;28;20029;-63
2024/01/17 12:22:24;;;;;;;35.75;22.38;;;4.00;90.00;;;;;;5035898;28;20033;-63
2024/01/17 12:24:50;;;;;;;34.05;23.00;;;4.00;90.30;;;;;;5039887;28;20037;-62
2024/01/17 12:27:15;;;;;;;34.35;22.63;;;4.00;89.70;;;;;;5036702;28;20033;-61
2024/01/17 12:29:42;;;;;;;34.35;22.65;;;4.10;89.70;;;;;;5039737;28;20036;-62
2024/01/17 12:32:07;;;;;;;34.25;22.65;;;4.10;89.60;;;;;;5046371;28;20116;-61
2024/01/17 12:34:33;;;;;;;36.58;23.67;;;4.10;89.40;;;;;;5037668;28;20128;-61